sensor_id;sensor_type;location;lat;lon;timestamp;pressure;altitude;pressure_sealevel;temperature;humidity
8573;BME280;4324;42.012;24.872;2023-02-16T00:00:50;100299.69;;;3.77;63.32
8573;BME280;4324;42.012;24.872;2023-02-16T00:03:18;100266.38;;;3.65;63.67
8573;BME280;4324;42.012;24.872;2023-02-16T00:05:46;100268.44;;;3.60;63.59
8573;BME280;4324;42.012;24.872;2023-02-16T00:08:14;100286.75;;;3.74;63.84
8573;BME280;4324;42.012;24.872;2023-02-16T00:10:41;100281.72;;;3.71;63.65
8573;BME280;4324;42.012;24.872;2023-02-16T00:13:30;100292.13;;;3.73;63.45
8573;BME280;4324;42.012;24.872;2023-02-16T00:16:14;100295.56;;;3.73;63.33
8573;BME280;4324;42.012;24.872;2023-02-16T00:18:41;100295.56;;;3.73;63.68
8573;BME280;4324;42.012;24.872;2023-02-16T00:21:08;100292.22;;;3.71;63.66
8573;BME280;4324;42.012;24.872;2023-02-16T00:23:35;100300.81;;;3.73;63.65
8573;BME280;4324;42.012;24.872;2023-02-16T00:26:03;100302.69;;;3.71;63.69
8573;BME280;4324;42.012;24.872;2023-02-16T00:28:31;100292.66;;;3.63;63.81
8573;BME280;4324;42.012;24.872;2023-02-16T00:30:58;100296.19;;;3.62;63.79
8573;BME280;4324;42.012;24.872;2023-02-16T00:33:25;100314.19;;;3.69;63.66
8573;BME280;4324;42.012;24.872;2023-02-16T00:35:52;100296.31;;;3.61;63.81
8573;BME280;4324;42.012;24.872;2023-02-16T00:38:19;100289.72;;;3.54;63.97
8573;BME280;4324;42.012;24.872;2023-02-16T00:40:45;100280.66;;;3.45;63.78
8573;BME280;4324;42.012;24.872;2023-02-16T00:43:22;100303.50;;;3.57;63.97
8573;BME280;4324;42.012;24.872;2023-02-16T00:45:51;100293.28;;;3.53;63.92
8573;BME280;4324;42.012;24.872;2023-02-16T00:48:19;100310.41;;;3.58;63.91
8573;BME280;4324;42.012;24.872;2023-02-16T00:50:46;100293.28;;;3.53;63.98
8573;BME280;4324;42.012;24.872;2023-02-16T00:53:13;100304.50;;;3.55;64.00
8573;BME280;4324;42.012;24.872;2023-02-16T00:55:41;100298.53;;;3.53;64.28
8573;BME280;4324;42.012;24.872;2023-02-16T00:58:14;100295.16;;;3.51;64.31
8573;BME280;4324;42.012;24.872;2023-02-16T01:00:43;100266.47;;;3.33;64.70
8573;BME280;4324;42.012;24.872;2023-02-16T01:03:15;100288.41;;;3.47;64.69
8573;BME280;4324;42.012;24.872;2023-02-16T01:05:43;100206.63;;;2.97;64.54
8573;BME280;4324;42.012;24.872;2023-02-16T01:08:12;100288.41;;;3.47;64.85
8573;BME280;4324;42.012;24.872;2023-02-16T01:10:56;100284.09;;;3.46;64.90
8573;BME280;4324;42.012;24.872;2023-02-16T01:13:38;100289.41;;;3.44;65.00
8573;BME280;4324;42.012;24.872;2023-02-16T01:16:11;100273.75;;;3.28;64.71
8573;BME280;4324;42.012;24.872;2023-02-16T01:18:40;100293.16;;;3.40;64.76
8573;BME280;4324;42.012;24.872;2023-02-16T01:21:07;100282.00;;;3.36;64.62
8573;BME280;4324;42.012;24.872;2023-02-16T01:23:35;100276.03;;;3.34;64.91
8573;BME280;4324;42.012;24.872;2023-02-16T01:26:03;100289.69;;;3.39;64.85
8573;BME280;4324;42.012;24.872;2023-02-16T01:28:33;100270.38;;;3.26;64.73
8573;BME280;4324;42.012;24.872;2023-02-16T01:31:01;100284.63;;;3.36;64.91
8573;BME280;4324;42.012;24.872;2023-02-16T01:33:28;100289.84;;;3.36;64.98
8573;BME280;4324;42.012;24.872;2023-02-16T01:35:57;100296.13;;;3.34;65.13
8573;BME280;4324;42.012;24.872;2023-02-16T01:38:26;100277.16;;;3.30;65.47
8573;BME280;4324;42.012;24.872;2023-02-16T01:41:03;100262.78;;;3.22;65.31
8573;BME280;4324;42.012;24.872;2023-02-16T01:43:38;100277.97;;;3.31;64.94
8573;BME280;4324;42.012;24.872;2023-02-16T01:46:13;100272.81;;;3.29;65.14
8573;BME280;4324;42.012;24.872;2023-02-16T01:48:43;100284.13;;;3.30;65.28
8573;BME280;4324;42.012;24.872;2023-02-16T01:51:15;100272.25;;;3.24;65.47
8573;BME280;4324;42.012;24.872;2023-02-16T01:53:47;100193.34;;;2.70;65.27
8573;BME280;4324;42.012;24.872;2023-02-16T01:56:23;100264.00;;;3.16;64.92
8573;BME280;4324;42.012;24.872;2023-02-16T01:58:59;100272.25;;;3.24;65.09
8573;BME280;4324;42.012;24.872;2023-02-16T02:01:41;100276.72;;;3.22;64.94
8573;BME280;4324;42.012;24.872;2023-02-16T02:04:20;100270.81;;;3.19;65.44
8573;BME280;4324;42.012;24.872;2023-02-16T02:07:10;100275.03;;;3.21;65.21
8573;BME280;4324;42.012;24.872;2023-02-16T02:09:42;100272.59;;;3.18;65.27
8573;BME280;4324;42.012;24.872;2023-02-16T02:12:15;100273.63;;;3.15;65.70
8573;BME280;4324;42.012;24.872;2023-02-16T02:14:47;100276.16;;;3.17;65.36
8573;BME280;4324;42.012;24.872;2023-02-16T02:17:17;100265.09;;;3.12;65.32
8573;BME280;4324;42.012;24.872;2023-02-16T02:19:50;100268.47;;;3.14;65.40
8573;BME280;4324;42.012;24.872;2023-02-16T02:22:47;100278.00;;;3.15;65.45
8573;BME280;4324;42.012;24.872;2023-02-16T02:28:50;100279.88;;;3.13;65.69
8573;BME280;4324;42.012;24.872;2023-02-16T02:31:27;100269.91;;;3.04;65.79
8573;BME280;4324;42.012;24.872;2023-02-16T02:34:09;100281.91;;;3.08;65.63
8573;BME280;4324;42.012;24.872;2023-02-16T02:36:44;100275.81;;;3.07;65.94
8573;BME280;4324;42.012;24.872;2023-02-16T02:39:21;100277.59;;;3.07;66.15
8573;BME280;4324;42.012;24.872;2023-02-16T02:41:56;100277.03;;;3.02;66.17
8573;BME280;4324;42.012;24.872;2023-02-16T02:44:35;100268.59;;;2.97;65.60
8573;BME280;4324;42.012;24.872;2023-02-16T02:47:04;100281.31;;;3.03;66.15
8573;BME280;4324;42.012;24.872;2023-02-16T02:49:31;100260.47;;;2.85;66.23
8573;BME280;4324;42.012;24.872;2023-02-16T02:51:58;100280.38;;;3.04;66.33
8573;BME280;4324;42.012;24.872;2023-02-16T02:54:27;100284.88;;;3.02;66.05
8573;BME280;4324;42.012;24.872;2023-02-16T02:57:15;100287.38;;;3.03;65.93
8573;BME280;4324;42.012;24.872;2023-02-16T03:00:05;100203.47;;;2.45;66.55
8573;BME280;4324;42.012;24.872;2023-02-16T03:03:04;100295.41;;;3.00;66.28
8573;BME280;4324;42.012;24.872;2023-02-16T03:05:33;100288.22;;;3.04;67.25
8573;BME280;4324;42.012;24.872;2023-02-16T03:08:06;100279.91;;;2.97;67.47
8573;BME280;4324;42.012;24.872;2023-02-16T03:10:40;100279.41;;;2.90;67.42
8573;BME280;4324;42.012;24.872;2023-02-16T03:13:27;100286.31;;;2.91;67.60
8573;BME280;4324;42.012;24.872;2023-02-16T03:15:56;100276.38;;;2.82;67.32
8573;BME280;4324;42.012;24.872;2023-02-16T03:18:26;100290.72;;;2.91;67.72
8573;BME280;4324;42.012;24.872;2023-02-16T03:21:12;100288.09;;;2.91;67.45
8573;BME280;4324;42.012;24.872;2023-02-16T03:23:59;100264.56;;;2.75;67.33
8573;BME280;4324;42.012;24.872;2023-02-16T03:26:45;100233.38;;;2.56;67.26
8573;BME280;4324;42.012;24.872;2023-02-16T03:29:32;100282.19;;;2.87;67.35
8573;BME280;4324;42.012;24.872;2023-02-16T03:32:00;100256.22;;;2.69;67.57
8573;BME280;4324;42.012;24.872;2023-02-16T03:34:28;100281.41;;;2.85;67.06
8573;BME280;4324;42.012;24.872;2023-02-16T03:36:57;100264.63;;;2.74;67.25
8573;BME280;4324;42.012;24.872;2023-02-16T03:39:26;100270.63;;;2.76;67.07
8573;BME280;4324;42.012;24.872;2023-02-16T03:41:55;100281.50;;;2.84;67.75
8573;BME280;4324;42.012;24.872;2023-02-16T03:44:22;100274.94;;;2.77;67.71
8573;BME280;4324;42.012;24.872;2023-02-16T03:46:50;100269.69;;;2.77;68.06
8573;BME280;4324;42.012;24.872;2023-02-16T03:49:19;100214.88;;;2.43;68.34
8573;BME280;4324;42.012;24.872;2023-02-16T03:51:46;100257.97;;;2.68;67.89
8573;BME280;4324;42.012;24.872;2023-02-16T03:54:13;100264.63;;;2.74;68.19
8573;BME280;4324;42.012;24.872;2023-02-16T03:56:39;100255.28;;;2.70;67.67
8573;BME280;4324;42.012;24.872;2023-02-16T03:59:06;100255.69;;;2.62;68.07
8573;BME280;4324;42.012;24.872;2023-02-16T04:01:33;100264.78;;;2.71;67.87
8573;BME280;4324;42.012;24.872;2023-02-16T04:04:00;100270.69;;;2.74;68.00
8573;BME280;4324;42.012;24.872;2023-02-16T04:06:28;100261.19;;;2.73;67.79
8573;BME280;4324;42.012;24.872;2023-02-16T04:08:55;100260.19;;;2.76;67.76
8573;BME280;4324;42.012;24.872;2023-02-16T04:11:22;100264.47;;;2.77;67.90
8573;BME280;4324;42.012;24.872;2023-02-16T04:14:07;100263.63;;;2.76;68.29
8573;BME280;4324;42.012;24.872;2023-02-16T04:16:33;100204.78;;;2.37;68.45
8573;BME280;4324;42.012;24.872;2023-02-16T04:19:00;100257.97;;;2.68;68.41
8573;BME280;4324;42.012;24.872;2023-02-16T04:21:32;100272.41;;;2.75;68.42
8573;BME280;4324;42.012;24.872;2023-02-16T04:24:03;100257.97;;;2.68;69.10
8573;BME280;4324;42.012;24.872;2023-02-16T04:26:34;100277.47;;;2.78;69.70
8573;BME280;4324;42.012;24.872;2023-02-16T04:29:01;100275.69;;;2.79;69.97
8573;BME280;4324;42.012;24.872;2023-02-16T04:31:28;100250.63;;;2.59;69.70
8573;BME280;4324;42.012;24.872;2023-02-16T04:33:55;100213.94;;;2.29;70.56
8573;BME280;4324;42.012;24.872;2023-02-16T04:36:22;100281.00;;;2.77;70.34
8573;BME280;4324;42.012;24.872;2023-02-16T04:38:50;100288.84;;;2.77;70.78
8573;BME280;4324;42.012;24.872;2023-02-16T04:41:17;100281.00;;;2.77;70.75
8573;BME280;4324;42.012;24.872;2023-02-16T04:43:44;100288.84;;;2.77;71.02
8573;BME280;4324;42.012;24.872;2023-02-16T04:46:10;100285.50;;;2.75;70.97
8573;BME280;4324;42.012;24.872;2023-02-16T04:48:37;100290.63;;;2.77;71.07
8573;BME280;4324;42.012;24.872;2023-02-16T04:51:05;100278.81;;;2.70;71.03
8573;BME280;4324;42.012;24.872;2023-02-16T04:53:32;100281.25;;;2.73;71.70
8573;BME280;4324;42.012;24.872;2023-02-16T04:56:00;100270.03;;;2.71;71.80
8573;BME280;4324;42.012;24.872;2023-02-16T04:58:27;100291.28;;;2.80;71.33
8573;BME280;4324;42.012;24.872;2023-02-16T05:00:53;100263.97;;;2.70;71.20
8573;BME280;4324;42.012;24.872;2023-02-16T05:03:20;100287.75;;;2.81;71.56
8573;BME280;4324;42.012;24.872;2023-02-16T05:05:48;100283.78;;;2.74;71.00
8573;BME280;4324;42.012;24.872;2023-02-16T05:08:15;100287.00;;;2.79;70.89
8573;BME280;4324;42.012;24.872;2023-02-16T05:10:42;100285.31;;;2.78;70.24
8573;BME280;4324;42.012;24.872;2023-02-16T05:13:10;100281.34;;;2.71;70.54
8573;BME280;4324;42.012;24.872;2023-02-16T05:15:55;100285.50;;;2.75;70.55
8573;BME280;4324;42.012;24.872;2023-02-16T05:18:22;100280.44;;;2.72;70.90
8573;BME280;4324;42.012;24.872;2023-02-16T05:20:48;100296.69;;;2.77;70.68
8573;BME280;4324;42.012;24.872;2023-02-16T05:23:33;100299.16;;;2.80;70.67
8573;BME280;4324;42.012;24.872;2023-02-16T05:25:59;100297.63;;;2.76;70.98
8573;BME280;4324;42.012;24.872;2023-02-16T05:28:28;100304.53;;;2.77;71.15
8573;BME280;4324;42.012;24.872;2023-02-16T05:30:54;100313.91;;;2.81;71.88
8573;BME280;4324;42.012;24.872;2023-02-16T05:33:22;100297.97;;;2.70;71.99
8573;BME280;4324;42.012;24.872;2023-02-16T05:35:49;100321.59;;;2.84;72.22
8573;BME280;4324;42.012;24.872;2023-02-16T05:38:15;100323.28;;;2.85;72.97
8573;BME280;4324;42.012;24.872;2023-02-16T05:40:42;100334.34;;;2.90;73.40
8573;BME280;4324;42.012;24.872;2023-02-16T05:43:09;100312.06;;;2.83;73.16
8573;BME280;4324;42.012;24.872;2023-02-16T05:45:38;100331.72;;;2.90;73.10
8573;BME280;4324;42.012;24.872;2023-02-16T05:48:05;100311.28;;;2.81;73.09
8573;BME280;4324;42.012;24.872;2023-02-16T05:50:32;100324.97;;;2.86;72.40
8573;BME280;4324;42.012;24.872;2023-02-16T05:52:59;100334.09;;;2.95;72.00
8573;BME280;4324;42.012;24.872;2023-02-16T05:55:26;100221.63;;;2.32;71.81
8573;BME280;4324;42.012;24.872;2023-02-16T05:57:53;100332.72;;;3.04;71.55
8573;BME280;4324;42.012;24.872;2023-02-16T06:00:20;100333.50;;;3.06;71.27
8573;BME280;4324;42.012;24.872;2023-02-16T06:02:48;100338.41;;;3.12;71.62
8573;BME280;4324;42.012;24.872;2023-02-16T06:05:15;100335.56;;;3.15;70.65
8573;BME280;4324;42.012;24.872;2023-02-16T06:07:42;100332.91;;;3.17;70.96
8573;BME280;4324;42.012;24.872;2023-02-16T06:10:09;100334.13;;;3.25;70.52
8573;BME280;4324;42.012;24.872;2023-02-16T06:12:36;100336.59;;;3.28;70.73
8573;BME280;4324;42.012;24.872;2023-02-16T06:15:03;100314.13;;;3.24;70.32
8573;BME280;4324;42.012;24.872;2023-02-16T06:17:30;100321.44;;;3.33;70.12
8573;BME280;4324;42.012;24.872;2023-02-16T06:19:59;100234.31;;;2.85;70.03
8573;BME280;4324;42.012;24.872;2023-02-16T06:22:25;100326.91;;;3.45;70.02
8573;BME280;4324;42.012;24.872;2023-02-16T06:24:52;100326.75;;;3.48;69.96
8573;BME280;4324;42.012;24.872;2023-02-16T06:27:19;100323.28;;;3.47;69.79
8573;BME280;4324;42.012;24.872;2023-02-16T06:29:46;100335.00;;;3.56;70.38
8573;BME280;4324;42.012;24.872;2023-02-16T06:32:13;100332.78;;;3.64;70.58
8573;BME280;4324;42.012;24.872;2023-02-16T06:34:40;100327.28;;;3.69;70.60
8573;BME280;4324;42.012;24.872;2023-02-16T06:37:08;100323.34;;;3.61;70.63
8573;BME280;4324;42.012;24.872;2023-02-16T06:39:35;100332.75;;;3.80;70.59
8573;BME280;4324;42.012;24.872;2023-02-16T06:42:02;100334.53;;;3.79;69.50
8573;BME280;4324;42.012;24.872;2023-02-16T06:44:29;100328.16;;;3.83;69.51
8573;BME280;4324;42.012;24.872;2023-02-16T06:46:55;100339.59;;;3.97;69.24
8573;BME280;4324;42.012;24.872;2023-02-16T06:49:23;100349.53;;;4.06;69.20
8573;BME280;4324;42.012;24.872;2023-02-16T06:51:50;100325.94;;;4.06;69.19
8573;BME280;4324;42.012;24.872;2023-02-16T06:54:18;100333.63;;;4.09;69.18
8573;BME280;4324;42.012;24.872;2023-02-16T06:56:45;100336.34;;;4.22;69.85
8573;BME280;4324;42.012;24.872;2023-02-16T06:59:13;100342.84;;;4.30;69.47
8573;BME280;4324;42.012;24.872;2023-02-16T07:01:39;100349.28;;;4.39;69.50
8573;BME280;4324;42.012;24.872;2023-02-16T07:04:09;100333.66;;;4.38;70.43
8573;BME280;4324;42.012;24.872;2023-02-16T07:06:36;100333.25;;;4.44;69.99
8573;BME280;4324;42.012;24.872;2023-02-16T07:09:03;100332.13;;;4.48;69.62
8573;BME280;4324;42.012;24.872;2023-02-16T07:11:31;100343.56;;;4.61;69.38
8573;BME280;4324;42.012;24.872;2023-02-16T07:13:58;100343.16;;;4.67;69.65
8573;BME280;4324;42.012;24.872;2023-02-16T07:16:25;100344.56;;;4.73;69.78
8573;BME280;4324;42.012;24.872;2023-02-16T07:18:52;100355.34;;;4.82;69.98
8573;BME280;4324;42.012;24.872;2023-02-16T07:21:19;100337.25;;;4.78;70.85
8573;BME280;4324;42.012;24.872;2023-02-16T07:23:46;100363.94;;;4.99;71.82
8573;BME280;4324;42.012;24.872;2023-02-16T07:26:13;100365.41;;;5.03;72.32
8573;BME280;4324;42.012;24.872;2023-02-16T07:28:41;100366.84;;;5.08;72.03
8573;BME280;4324;42.012;24.872;2023-02-16T07:31:09;100356.88;;;5.14;72.72
8573;BME280;4324;42.012;24.872;2023-02-16T07:33:37;100338.63;;;4.98;72.96
8573;BME280;4324;42.012;24.872;2023-02-16T07:36:08;100360.59;;;5.24;72.55
8573;BME280;4324;42.012;24.872;2023-02-16T07:38:35;100364.78;;;5.26;71.97
8573;BME280;4324;42.012;24.872;2023-02-16T07:41:03;100367.22;;;5.29;71.88
8573;BME280;4324;42.012;24.872;2023-02-16T07:43:31;100355.78;;;5.30;71.84
8573;BME280;4324;42.012;24.872;2023-02-16T07:46:00;100364.00;;;5.39;71.90
8573;BME280;4324;42.012;24.872;2023-02-16T07:48:27;100360.25;;;5.43;71.77
8573;BME280;4324;42.012;24.872;2023-02-16T07:50:54;100341.94;;;5.41;71.87
8573;BME280;4324;42.012;24.872;2023-02-16T07:53:21;100348.28;;;5.51;72.05
8573;BME280;4324;42.012;24.872;2023-02-16T07:55:48;100354.19;;;5.55;72.29
8573;BME280;4324;42.012;24.872;2023-02-16T07:58:14;100350.50;;;5.57;72.07
8573;BME280;4324;42.012;24.872;2023-02-16T08:00:52;100347.78;;;5.59;72.34
8573;BME280;4324;42.012;24.872;2023-02-16T08:03:21;100360.53;;;5.65;72.42
8573;BME280;4324;42.012;24.872;2023-02-16T08:05:48;100348.84;;;5.69;72.67
8573;BME280;4324;42.012;24.872;2023-02-16T08:08:15;100341.81;;;5.70;72.47
8573;BME280;4324;42.012;24.872;2023-02-16T08:10:47;100359.50;;;5.80;72.26
8573;BME280;4324;42.012;24.872;2023-02-16T08:13:14;100356.88;;;5.80;71.52
8573;BME280;4324;42.012;24.872;2023-02-16T08:15:41;100357.81;;;5.79;71.12
8573;BME280;4324;42.012;24.872;2023-02-16T08:18:09;100359.63;;;5.92;71.06
8573;BME280;4324;42.012;24.872;2023-02-16T08:20:37;100344.16;;;5.87;70.87
8573;BME280;4324;42.012;24.872;2023-02-16T08:23:04;100364.59;;;5.96;70.75
8573;BME280;4324;42.012;24.872;2023-02-16T08:25:32;100360.94;;;5.99;70.39
8573;BME280;4324;42.012;24.872;2023-02-16T08:27:59;100279.53;;;5.45;70.21
8573;BME280;4324;42.012;24.872;2023-02-16T08:30:26;100358.53;;;6.09;70.56
8573;BME280;4324;42.012;24.872;2023-02-16T08:32:53;100356.84;;;6.20;70.43
8573;BME280;4324;42.012;24.872;2023-02-16T08:35:25;100339.41;;;6.19;70.60
8573;BME280;4324;42.012;24.872;2023-02-16T08:37:53;100351.56;;;6.33;70.64
8573;BME280;4324;42.012;24.872;2023-02-16T08:40:20;100364.75;;;6.46;70.69
8573;BME280;4324;42.012;24.872;2023-02-16T08:42:49;100359.88;;;6.52;70.73
8573;BME280;4324;42.012;24.872;2023-02-16T08:45:16;100351.13;;;6.52;70.68
8573;BME280;4324;42.012;24.872;2023-02-16T08:47:44;100334.72;;;6.48;70.52
8573;BME280;4324;42.012;24.872;2023-02-16T08:50:11;100349.66;;;6.61;70.53
8573;BME280;4324;42.012;24.872;2023-02-16T08:52:38;100344.50;;;6.59;69.92
8573;BME280;4324;42.012;24.872;2023-02-16T08:55:07;100303.81;;;6.39;69.91
8573;BME280;4324;42.012;24.872;2023-02-16T08:57:34;100338.28;;;6.73;70.49
8573;BME280;4324;42.012;24.872;2023-02-16T09:00:02;100349.50;;;6.88;70.88
8573;BME280;4324;42.012;24.872;2023-02-16T09:02:47;100359.16;;;7.00;71.00
8573;BME280;4324;42.012;24.872;2023-02-16T09:05:14;100352.50;;;7.07;70.78
8573;BME280;4324;42.012;24.872;2023-02-16T09:07:41;100354.56;;;7.15;70.37
8573;BME280;4324;42.012;24.872;2023-02-16T09:10:11;100353.09;;;7.23;70.51
8573;BME280;4324;42.012;24.872;2023-02-16T09:12:38;100347.34;;;7.30;70.53
8573;BME280;4324;42.012;24.872;2023-02-16T09:15:06;100345.44;;;7.32;70.39
8573;BME280;4324;42.012;24.872;2023-02-16T09:17:33;100344.97;;;7.38;70.66
8573;BME280;4324;42.012;24.872;2023-02-16T09:20:00;100338.78;;;7.39;71.00
8573;BME280;4324;42.012;24.872;2023-02-16T09:22:27;100332.81;;;7.48;71.00
8573;BME280;4324;42.012;24.872;2023-02-16T09:24:54;100338.47;;;7.55;70.99
8573;BME280;4324;42.012;24.872;2023-02-16T09:27:25;100314.38;;;7.48;70.42
8573;BME280;4324;42.012;24.872;2023-02-16T09:29:53;100326.41;;;7.63;70.31
8573;BME280;4324;42.012;24.872;2023-02-16T09:32:20;100322.72;;;7.77;70.18
8573;BME280;4324;42.012;24.872;2023-02-16T09:34:47;100313.28;;;7.86;70.57
8573;BME280;4324;42.012;24.872;2023-02-16T09:37:15;100325.56;;;7.98;70.47
8573;BME280;4324;42.012;24.872;2023-02-16T09:39:42;100330.69;;;7.99;70.47
8573;BME280;4324;42.012;24.872;2023-02-16T09:42:21;100322.91;;;7.98;70.50
8573;BME280;4324;42.012;24.872;2023-02-16T09:45:01;100320.75;;;8.03;69.82
8573;BME280;4324;42.012;24.872;2023-02-16T09:47:33;100314.41;;;8.06;69.72
8573;BME280;4324;42.012;24.872;2023-02-16T09:50:03;100310.44;;;8.11;69.64
8573;BME280;4324;42.012;24.872;2023-02-16T09:52:35;100296.31;;;8.12;69.68
8573;BME280;4324;42.012;24.872;2023-02-16T09:55:07;100296.56;;;8.20;69.91
8573;BME280;4324;42.012;24.872;2023-02-16T09:57:41;100297.88;;;8.26;69.81
8573;BME280;4324;42.012;24.872;2023-02-16T10:00:22;100299.44;;;8.29;69.04
8573;BME280;4324;42.012;24.872;2023-02-16T10:02:54;100299.66;;;8.37;68.26
8573;BME280;4324;42.012;24.872;2023-02-16T10:05:28;100287.34;;;8.37;68.16
8573;BME280;4324;42.012;24.872;2023-02-16T10:08:00;100279.56;;;8.47;67.98
8573;BME280;4324;42.012;24.872;2023-02-16T10:10:33;100266.81;;;8.41;67.66
8573;BME280;4324;42.012;24.872;2023-02-16T10:13:07;100281.44;;;8.56;66.90
8573;BME280;4324;42.012;24.872;2023-02-16T10:15:41;100280.00;;;8.63;67.00
8573;BME280;4324;42.012;24.872;2023-02-16T10:18:18;100274.84;;;8.62;67.30
8573;BME280;4324;42.012;24.872;2023-02-16T10:20:50;100277.03;;;8.68;66.96
8573;BME280;4324;42.012;24.872;2023-02-16T10:23:28;100271.84;;;8.66;67.34
8573;BME280;4324;42.012;24.872;2023-02-16T10:26:00;100265.94;;;8.74;67.66
8573;BME280;4324;42.012;24.872;2023-02-16T10:28:35;100275.78;;;8.83;67.70
8573;BME280;4324;42.012;24.872;2023-02-16T10:31:12;100274.06;;;8.93;68.08
8573;BME280;4324;42.012;24.872;2023-02-16T10:33:42;100242.53;;;8.81;68.02
8573;BME280;4324;42.012;24.872;2023-02-16T10:36:15;100259.66;;;8.98;67.37
8573;BME280;4324;42.012;24.872;2023-02-16T10:38:52;100258.41;;;9.13;67.12
8573;BME280;4324;42.012;24.872;2023-02-16T10:41:28;100255.63;;;9.14;67.34
8573;BME280;4324;42.012;24.872;2023-02-16T10:44:00;100262.66;;;9.25;67.46
8573;BME280;4324;42.012;24.872;2023-02-16T10:46:33;100250.03;;;9.29;67.30
8573;BME280;4324;42.012;24.872;2023-02-16T10:49:02;100257.31;;;9.36;66.83
8573;BME280;4324;42.012;24.872;2023-02-16T10:51:32;100250.22;;;9.37;66.78
8573;BME280;4324;42.012;24.872;2023-02-16T10:54:04;100250.72;;;9.42;67.09
8573;BME280;4324;42.012;24.872;2023-02-16T10:56:54;100236.94;;;9.48;66.83
8573;BME280;4324;42.012;24.872;2023-02-16T10:59:25;100237.28;;;9.55;66.79
8573;BME280;4324;42.012;24.872;2023-02-16T11:01:59;100225.63;;;9.57;66.70
8573;BME280;4324;42.012;24.872;2023-02-16T11:04:32;100222.59;;;9.62;66.64
8573;BME280;4324;42.012;24.872;2023-02-16T11:07:02;100221.19;;;9.67;66.52
8573;BME280;4324;42.012;24.872;2023-02-16T11:09:29;100221.28;;;9.77;66.15
8573;BME280;4324;42.012;24.872;2023-02-16T11:11:57;100213.78;;;9.82;65.49
8573;BME280;4324;42.012;24.872;2023-02-16T11:14:25;100208.38;;;9.84;65.83
8573;BME280;4324;42.012;24.872;2023-02-16T11:17:04;100206.28;;;9.87;66.00
8573;BME280;4324;42.012;24.872;2023-02-16T11:19:33;100204.06;;;9.92;65.74
8573;BME280;4324;42.012;24.872;2023-02-16T11:22:00;100198.53;;;9.96;65.60
8573;BME280;4324;42.012;24.872;2023-02-16T11:24:30;100206.22;;;9.99;65.30
8573;BME280;4324;42.012;24.872;2023-02-16T11:26:59;100197.16;;;10.01;65.79
8573;BME280;4324;42.012;24.872;2023-02-16T11:29:27;100197.84;;;10.03;65.97
8573;BME280;4324;42.012;24.872;2023-02-16T11:31:55;100186.28;;;10.04;66.08
8573;BME280;4324;42.012;24.872;2023-02-16T11:34:28;100189.97;;;10.13;65.52
8573;BME280;4324;42.012;24.872;2023-02-16T11:37:04;100183.56;;;10.15;65.42
8573;BME280;4324;42.012;24.872;2023-02-16T11:39:35;100169.16;;;10.08;64.60
8573;BME280;4324;42.012;24.872;2023-02-16T11:42:06;100164.06;;;10.16;64.17
8573;BME280;4324;42.012;24.872;2023-02-16T11:44:36;100179.88;;;10.28;63.75
8573;BME280;4324;42.012;24.872;2023-02-16T11:47:06;100160.59;;;10.16;63.94
8573;BME280;4324;42.012;24.872;2023-02-16T11:49:37;100166.66;;;10.37;64.28
8573;BME280;4324;42.012;24.872;2023-02-16T11:52:26;100173.22;;;10.43;64.25
8573;BME280;4324;42.012;24.872;2023-02-16T11:54:56;100163.31;;;10.45;64.58
8573;BME280;4324;42.012;24.872;2023-02-16T11:57:24;100165.69;;;10.48;64.03
8573;BME280;4324;42.012;24.872;2023-02-16T11:59:53;100157.75;;;10.48;64.20
8573;BME280;4324;42.012;24.872;2023-02-16T12:02:49;100162.78;;;10.51;63.77
8573;BME280;4324;42.012;24.872;2023-02-16T12:05:32;100151.91;;;10.54;63.60
8573;BME280;4324;42.012;24.872;2023-02-16T12:08:23;100138.94;;;10.51;63.37
8573;BME280;4324;42.012;24.872;2023-02-16T12:11:07;100129.34;;;10.50;63.37
8573;BME280;4324;42.012;24.872;2023-02-16T12:13:40;100135.44;;;10.60;62.96
8573;BME280;4324;42.012;24.872;2023-02-16T12:16:21;100119.03;;;10.57;62.94
8573;BME280;4324;42.012;24.872;2023-02-16T12:19:00;100101.16;;;10.49;62.97
8573;BME280;4324;42.012;24.872;2023-02-16T12:21:38;100125.69;;;10.71;61.76
8573;BME280;4324;42.012;24.872;2023-02-16T12:24:16;100123.75;;;10.73;61.54
8573;BME280;4324;42.012;24.872;2023-02-16T12:26:51;100093.06;;;10.60;61.72
8573;BME280;4324;42.012;24.872;2023-02-16T12:29:32;100044.28;;;10.34;61.25
8573;BME280;4324;42.012;24.872;2023-02-16T12:32:17;100108.41;;;10.86;61.18
8573;BME280;4324;42.012;24.872;2023-02-16T12:34:54;100106.75;;;10.95;61.48
8573;BME280;4324;42.012;24.872;2023-02-16T12:37:32;100053.91;;;10.74;61.63
8573;BME280;4324;42.012;24.872;2023-02-16T12:40:11;100095.16;;;11.05;61.64
8573;BME280;4324;42.012;24.872;2023-02-16T12:42:50;100085.38;;;10.96;61.39
8573;BME280;4324;42.012;24.872;2023-02-16T12:45:22;100090.81;;;11.04;61.42
8573;BME280;4324;42.012;24.872;2023-02-16T12:47:54;100096.66;;;11.08;61.34
8573;BME280;4324;42.012;24.872;2023-02-16T12:50:25;100084.66;;;11.04;61.07
8573;BME280;4324;42.012;24.872;2023-02-16T12:52:56;100086.88;;;11.08;61.09
8573;BME280;4324;42.012;24.872;2023-02-16T12:55:28;100084.13;;;11.10;61.20
8573;BME280;4324;42.012;24.872;2023-02-16T12:58:08;100082.84;;;11.14;61.16
8573;BME280;4324;42.012;24.872;2023-02-16T13:00:42;100079.34;;;11.13;61.23
8573;BME280;4324;42.012;24.872;2023-02-16T13:03:22;100072.53;;;11.11;60.88
8573;BME280;4324;42.012;24.872;2023-02-16T13:05:57;100055.66;;;11.02;61.09
8573;BME280;4324;42.012;24.872;2023-02-16T13:08:35;100064.44;;;11.12;60.91
8573;BME280;4324;42.012;24.872;2023-02-16T13:11:10;100056.19;;;11.15;59.85
8573;BME280;4324;42.012;24.872;2023-02-16T13:13:40;100063.13;;;11.26;59.66
8573;BME280;4324;42.012;24.872;2023-02-16T13:16:13;100051.97;;;11.23;59.77
8573;BME280;4324;42.012;24.872;2023-02-16T13:18:43;100046.81;;;11.21;59.90
8573;BME280;4324;42.012;24.872;2023-02-16T13:21:21;100046.66;;;11.23;60.20
8573;BME280;4324;42.012;24.872;2023-02-16T13:24:00;100049.31;;;11.23;60.29
8573;BME280;4324;42.012;24.872;2023-02-16T13:26:48;100051.69;;;11.26;60.73
8573;BME280;4324;42.012;24.872;2023-02-16T13:29:42;100044.44;;;11.28;61.22
8573;BME280;4324;42.012;24.872;2023-02-16T13:32:35;100039.81;;;11.30;60.63
8573;BME280;4324;42.012;24.872;2023-02-16T13:35:17;100049.59;;;11.29;60.64